Time;durP1;ratioP1;P1;durP2;ratioP2;P2;SDS_P1;SDS_P2;PMS_P1;PMS_P2;Temp;Humidity;BMP_temperature;BMP_pressure;BME280_temperature;BME280_humidity;BME280_pressure;Samples;Min_cycle;Max_cycle;Signal;HPM_P1;HPM_P2
2024/02/08 00:01:08;;;;;;;1.80;0.60;;;;;;;6.52;58.06;98837.89;104132;1254;60563;-56
2024/02/08 00:03:34;;;;;;;4.20;1.10;;;;;;;6.50;58.17;98836.64;104189;1254;65101;-56
2024/02/08 00:06:02;;;;;;;1.60;0.50;;;;;;;6.46;58.28;98842.23;104289;1260;60920;-55
2024/02/08 00:08:29;;;;;;;2.30;0.50;;;;;;;6.48;58.19;98842.94;104581;1254;60451;-56
2024/02/08 00:10:57;;;;;;;4.80;0.50;;;;;;;6.54;58.06;98852.88;105734;1254;65116;-55
2024/02/08 00:13:23;;;;;;;3.30;0.50;;;;;;;6.58;57.97;98849.05;104889;1254;218293;-55
2024/02/08 00:27:03;;;;;;;1.90;0.60;;;;;;;6.40;58.38;98874.17;102301;1283;608525;-57
2024/02/08 00:29:31;;;;;;;4.40;1.70;;;;;;;6.91;56.84;98887.97;104658;1268;146041;-55
2024/02/08 00:32:02;;;;;;;3.60;0.90;;;;;;;6.86;57.02;98895.02;108080;1264;57781;-54
2024/02/08 00:34:29;;;;;;;4.90;1.60;;;;;;;6.83;57.17;98899.65;105263;1266;64265;-56
2024/02/08 00:36:57;;;;;;;3.00;0.90;;;;;;;6.74;57.39;98906.52;103701;1270;60211;-56
2024/02/08 00:39:25;;;;;;;2.30;0.50;;;;;;;6.71;57.52;98898.98;103650;1264;62539;-56
2024/02/08 00:41:57;;;;;;;4.90;1.60;;;;;;;6.73;57.59;98900.36;103553;1266;59359;-57
2024/02/08 00:44:27;;;;;;;3.20;0.80;;;;;;;6.76;57.60;98904.48;108075;1264;58800;-59
2024/02/08 00:46:55;;;;;;;3.20;0.70;;;;;;;6.76;57.71;98899.96;108098;1266;62091;-58
2024/02/08 00:49:23;;;;;;;3.40;0.80;;;;;;;6.69;57.98;98898.45;104377;1264;61489;-57
2024/02/08 00:51:50;;;;;;;1.80;0.50;;;;;;;6.63;58.22;98900.38;103727;1264;62444;-57
2024/02/08 00:54:18;;;;;;;2.10;0.50;;;;;;;6.57;58.42;98900.23;103615;1267;60434;-57
2024/02/08 00:56:46;;;;;;;2.80;1.20;;;;;;;6.48;58.70;98905.31;103754;1269;59240;-56
2024/02/08 00:59:15;;;;;;;2.40;0.40;;;;;;;6.43;58.89;98910.05;103926;1267;64163;-57
2024/02/08 01:01:43;;;;;;;5.30;0.80;;;;;;;6.41;59.02;98913.23;108003;1266;61748;-59
2024/02/08 01:04:11;;;;;;;2.50;0.70;;;;;;;6.45;58.96;98912.15;108077;1264;63752;-58
2024/02/08 01:06:40;;;;;;;3.00;0.60;;;;;;;6.50;58.91;98911.20;107910;1261;58121;-59
2024/02/08 01:09:08;;;;;;;3.20;0.80;;;;;;;6.55;58.72;98906.63;103809;1262;60515;-57
2024/02/08 01:11:36;;;;;;;4.80;1.70;;;;;;;6.57;58.74;98904.58;103857;1260;64142;-60
2024/02/08 01:14:04;;;;;;;2.30;0.50;;;;;;;6.54;58.79;98911.45;103772;1266;60135;-60
2024/02/08 01:16:33;;;;;;;3.70;1.10;;;;;;;6.44;58.82;98913.61;108240;1261;64624;-59
2024/02/08 01:19:02;;;;;;;2.70;1.30;;;;;;;6.40;58.92;98909.30;108232;1263;58115;-59
2024/02/08 01:21:31;;;;;;;3.50;0.70;;;;;;;6.37;59.04;98910.64;108267;1265;59365;-60
2024/02/08 01:23:59;;;;;;;4.20;1.70;;;;;;;6.38;59.15;98916.84;105256;1261;64118;-58
2024/02/08 01:26:26;;;;;;;3.40;1.10;;;;;;;6.41;59.21;98929.23;103779;1260;60150;-58
2024/02/08 01:28:54;;;;;;;2.50;1.00;;;;;;;6.44;59.14;98929.67;103847;1263;62542;-59
2024/02/08 01:31:22;;;;;;;2.70;1.00;;;;;;;6.48;59.14;98931.20;108234;1261;64320;-59
2024/02/08 01:33:50;;;;;;;2.90;0.80;;;;;;;6.52;59.01;98935.78;108269;1260;59778;-59
2024/02/08 01:36:18;;;;;;;2.70;0.80;;;;;;;6.51;59.12;98937.64;108290;1263;62847;-58
2024/02/08 01:38:46;;;;;;;2.80;0.70;;;;;;;6.50;59.11;98949.74;108230;1260;60126;-57
2024/02/08 01:41:13;;;;;;;2.70;1.10;;;;;;;6.46;59.05;98953.73;108290;1260;64824;-58
2024/02/08 01:43:41;;;;;;;4.10;1.90;;;;;;;6.40;59.10;98947.59;106749;1261;59610;-56
2024/02/08 01:46:12;;;;;;;1.00;0.30;;;;;;;6.37;59.31;98938.16;104970;1261;59755;-57
2024/02/08 01:48:44;;;;;;;1.70;0.30;;;;;;;6.41;59.27;98953.95;104781;1261;64152;-60
2024/02/08 01:51:13;;;;;;;2.80;0.50;;;;;;;6.49;59.11;98951.75;104907;1261;61577;-57
2024/02/08 01:53:44;;;;;;;1.60;0.40;;;;;;;6.50;59.18;98960.50;104835;1264;62441;-56
2024/02/08 01:56:11;;;;;;;4.70;0.80;;;;;;;6.48;59.17;98959.63;104645;1263;59781;-58
2024/02/08 01:58:43;;;;;;;1.70;0.40;;;;;;;6.45;59.25;98968.58;104631;1266;59567;-56
2024/02/08 02:01:15;;;;;;;3.10;0.60;;;;;;;6.41;59.28;98970.38;108381;1257;64089;-57
2024/02/08 02:03:42;;;;;;;2.60;0.60;;;;;;;6.36;59.46;98968.16;105849;1260;60111;-55
2024/02/08 02:06:14;;;;;;;1.50;0.40;;;;;;;6.30;59.42;98965.70;104049;1263;65527;-57
2024/02/08 02:08:52;;;;;;;2.10;0.70;;;;;;;6.24;59.45;98966.36;104257;1259;60007;-55
2024/02/08 02:11:46;;;;;;;3.80;1.10;;;;;;;6.27;59.37;98962.48;108533;1257;57616;-53
2024/02/08 02:14:15;;;;;;;2.80;0.60;;;;;;;6.34;59.41;98964.65;108488;1256;62861;-59
2024/02/08 02:16:43;;;;;;;1.70;0.50;;;;;;;6.41;59.07;98971.91;104367;1260;60101;-56
2024/02/08 02:19:11;;;;;;;1.60;0.30;;;;;;;6.42;58.98;98966.30;104426;1257;62533;-63
2024/02/08 02:21:39;;;;;;;2.20;0.40;;;;;;;6.40;59.03;98966.48;108477;1257;59452;-56
2024/02/08 02:24:07;;;;;;;3.00;0.70;;;;;;;6.38;58.96;98971.19;108469;1257;59176;-57
2024/02/08 02:26:36;;;;;;;2.00;0.60;;;;;;;6.32;58.72;98984.71;108516;1257;62850;-56
2024/02/08 02:29:04;;;;;;;2.10;0.40;;;;;;;6.26;58.62;98994.83;105434;1260;61346;-55
2024/02/08 02:31:32;;;;;;;1.00;0.20;;;;;;;6.20;58.63;98993.55;105860;1262;62464;-58
2024/02/08 02:34:00;;;;;;;1.80;0.30;;;;;;;6.13;58.55;98994.13;104130;1257;59707;-58
2024/02/08 02:36:28;;;;;;;3.50;1.00;;;;;;;6.12;58.44;98998.70;104005;1263;59330;-53
2024/02/08 02:38:55;;;;;;;1.30;0.40;;;;;;;6.18;58.40;98998.91;104152;1257;62982;-54
2024/02/08 02:41:27;;;;;;;0.90;0.30;;;;;;;6.26;58.03;99007.17;104294;1257;61409;-54
2024/02/08 02:43:55;;;;;;;2.80;0.70;;;;;;;6.28;57.84;99005.77;105095;1258;64142;-53
2024/02/08 02:46:23;;;;;;;2.90;0.60;;;;;;;6.28;57.89;99005.58;105403;1263;59656;-55
2024/02/08 02:48:51;;;;;;;1.10;0.20;;;;;;;6.27;57.81;99005.70;105114;1263;59645;-52
2024/02/08 02:51:19;;;;;;;2.60;0.60;;;;;;;6.24;57.71;99005.59;104895;1263;64171;-56
2024/02/08 02:53:47;;;;;;;0.90;0.30;;;;;;;6.21;57.82;98995.94;107810;1258;60873;-55
2024/02/08 02:56:15;;;;;;;0.90;0.20;;;;;;;6.16;57.86;98993.92;104125;1257;63729;-55
2024/02/08 02:58:43;;;;;;;0.70;0.20;;;;;;;6.12;57.70;98986.33;105755;1258;59550;-56
2024/02/08 03:01:12;;;;;;;1.30;0.40;;;;;;;6.08;57.79;98987.55;104204;1257;59637;-55
2024/02/08 03:03:40;;;;;;;1.50;0.30;;;;;;;6.01;57.88;98992.17;106976;1257;63430;-56
2024/02/08 03:06:13;;;;;;;1.40;0.40;;;;;;;5.94;58.05;98990.08;104147;1263;60302;-56
2024/02/08 03:08:44;;;;;;;1.60;0.40;;;;;;;5.98;58.12;98994.18;106144;1260;65445;-55
2024/02/08 03:11:13;;;;;;;1.10;0.20;;;;;;;6.05;58.16;98993.60;108532;1257;59039;-55
2024/02/08 03:13:42;;;;;;;0.80;0.20;;;;;;;6.13;58.01;99005.11;108497;1258;59238;-56
2024/02/08 03:16:10;;;;;;;2.10;0.60;;;;;;;6.18;57.80;99020.21;106902;1257;62881;-58
2024/02/08 03:18:42;;;;;;;3.30;0.50;;;;;;;6.19;57.91;99033.02;104161;1257;61483;-54
2024/02/08 03:21:14;;;;;;;1.30;0.30;;;;;;;6.20;57.98;99037.46;106781;1258;63708;-55
2024/02/08 03:23:45;;;;;;;3.50;1.20;;;;;;;6.20;58.02;99039.82;106032;1257;59249;-55
2024/02/08 03:26:15;;;;;;;1.60;0.40;;;;;;;6.18;57.86;99048.73;105257;1263;59705;-51
2024/02/08 03:28:43;;;;;;;2.00;0.40;;;;;;;6.12;57.95;99044.38;105345;1258;64117;-55
2024/02/08 03:31:14;;;;;;;1.80;0.40;;;;;;;6.12;58.07;99046.11;105558;1255;61635;-54
2024/02/08 03:33:45;;;;;;;0.70;0.20;;;;;;;6.12;58.09;99050.76;105570;1255;63788;-54
2024/02/08 03:36:13;;;;;;;0.90;0.40;;;;;;;6.13;58.07;99056.39;105442;1254;60098;-54
2024/02/08 03:38:40;;;;;;;2.70;0.60;;;;;;;6.10;57.90;99060.38;105461;1256;59664;-57
2024/02/08 03:41:08;;;;;;;2.50;0.40;;;;;;;6.01;57.80;99063.55;105470;1254;63463;-55
2024/02/08 03:43:36;;;;;;;1.10;0.20;;;;;;;5.96;57.91;99062.53;105363;1257;60146;-55
2024/02/08 03:46:07;;;;;;;0.80;0.30;;;;;;;5.99;57.89;99062.63;105321;1260;62489;-56
2024/02/08 03:48:36;;;;;;;2.10;0.40;;;;;;;6.02;57.68;99064.35;104679;1257;59710;-56
2024/02/08 03:51:04;;;;;;;1.60;0.30;;;;;;;6.05;57.70;99080.98;105842;1258;59313;-55
2024/02/08 03:53:36;;;;;;;1.60;0.40;;;;;;;6.10;57.70;99087.66;104568;1254;64078;-55
2024/02/08 03:56:06;;;;;;;2.40;0.40;;;;;;;6.12;57.63;99092.89;108823;1254;60086;-56
2024/02/08 03:58:36;;;;;;;2.60;0.60;;;;;;;6.16;57.56;99099.41;106836;1257;62678;-57
2024/02/08 04:01:04;;;;;;;2.30;0.70;;;;;;;6.16;57.44;99103.42;105633;1260;61808;-58
2024/02/08 04:03:53;;;;;;;1.30;0.30;;;;;;;6.13;57.22;99105.19;105663;1255;59652;-57
2024/02/08 04:06:49;;;;;;;1.80;0.40;;;;;;;6.03;57.15;99104.27;105822;1256;64670;-57
2024/02/08 04:09:33;;;;;;;1.30;0.30;;;;;;;5.91;57.28;99110.07;106058;1255;60287;-56
2024/02/08 04:53:58;;;;;;;2.50;0.70;;;;;;;5.01;58.80;99163.91;105362;1264;72958;-55
2024/02/08 04:56:28;;;;;;;1.70;0.30;;;;;;;5.00;58.90;99168.67;105078;1257;60436;-55
2024/02/08 04:58:58;;;;;;;1.50;0.50;;;;;;;5.00;58.96;99175.45;105974;1259;60463;-54
2024/02/08 05:01:53;;;;;;;2.70;0.80;;;;;;;5.07;58.82;99174.30;106249;1255;63615;-57
2024/02/08 05:04:24;;;;;;;1.40;0.30;;;;;;;5.15;58.65;99175.94;107682;1258;62837;-55
2024/02/08 05:06:53;;;;;;;1.70;0.40;;;;;;;5.19;58.59;99178.89;105450;1260;62496;-57
2024/02/08 05:09:25;;;;;;;1.50;0.40;;;;;;;5.25;58.57;99186.47;105292;1264;60552;-57
2024/02/08 05:11:53;;;;;;;2.60;1.40;;;;;;;5.30;58.49;99194.23;105339;1260;60494;-57
2024/02/08 05:14:26;;;;;;;2.10;0.80;;;;;;;5.30;58.41;99198.91;106045;1255;63957;-58
2024/02/08 05:16:55;;;;;;;2.00;0.50;;;;;;;5.27;58.42;99202.45;107452;1259;72176;-54
2024/02/08 05:19:25;;;;;;;3.10;0.50;;;;;;;5.22;58.40;99207.35;105799;1259;62560;-56
2024/02/08 05:21:58;;;;;;;2.20;0.40;;;;;;;5.18;58.51;99211.48;105669;1260;60446;-56
2024/02/08 05:24:28;;;;;;;3.30;0.70;;;;;;;5.12;58.50;99219.27;105799;1259;60392;-57
2024/02/08 05:26:56;;;;;;;2.60;0.50;;;;;;;5.05;58.71;99223.25;107425;1257;63738;-56
2024/02/08 05:29:25;;;;;;;1.90;0.40;;;;;;;5.02;58.82;99229.34;105018;1263;60254;-55
2024/02/08 05:31:52;;;;;;;5.10;1.90;;;;;;;4.98;58.81;99233.68;104833;1260;64153;-54
2024/02/08 05:34:21;;;;;;;9.60;3.00;;;;;;;4.94;58.95;99242.14;105152;1255;60363;-65
2024/02/08 05:36:55;;;;;;;14.30;5.10;;;;;;;4.93;59.05;99248.98;105663;1255;60546;-67
2024/02/08 05:40:02;;;;;;;18.60;6.60;;;;;;;5.03;59.03;99250.55;107001;1254;63828;-64
2024/02/08 05:42:30;;;;;;;24.60;7.10;;;;;;;5.14;58.83;99251.27;105673;1260;61890;-70
2024/02/08 05:45:18;;;;;;;16.90;6.10;;;;;;;5.25;58.63;99253.75;106276;1256;64141;-70
2024/02/08 05:47:51;;;;;;;11.50;2.90;;;;;;;5.37;58.60;99258.38;105542;1260;60459;-67
2024/02/08 05:50:21;;;;;;;8.80;2.00;;;;;;;5.51;58.54;99262.16;105238;1260;60562;-67
2024/02/08 05:52:51;;;;;;;9.80;3.20;;;;;;;5.57;58.29;99265.20;105017;1254;63688;-68
2024/02/08 05:55:19;;;;;;;15.20;5.80;;;;;;;5.57;58.09;99267.81;105092;1260;61909;-63
2024/02/08 05:57:48;;;;;;;12.30;6.30;;;;;;;5.55;57.99;99266.57;105923;1257;63735;-57
2024/02/08 06:00:32;;;;;;;12.80;4.50;;;;;;;5.48;58.02;99268.15;105065;1254;60479;-67
2024/02/08 06:03:03;;;;;;;5.00;1.70;;;;;;;5.36;58.05;99268.33;109185;1258;58429;-69
2024/02/08 06:05:31;;;;;;;4.10;1.20;;;;;;;5.31;58.27;99273.79;108946;1254;66121;-69
2024/02/08 06:07:59;;;;;;;3.60;1.10;;;;;;;5.27;58.18;99274.60;108595;1254;62739;-66
2024/02/08 06:10:45;;;;;;;4.00;1.30;;;;;;;5.21;58.14;99276.30;108590;1254;63732;-59
2024/02/08 06:13:16;;;;;;;3.30;0.90;;;;;;;5.15;58.21;99276.58;108639;1260;59479;-55
2024/02/08 06:15:50;;;;;;;7.40;1.40;;;;;;;5.10;58.28;99272.81;108721;1257;60417;-58
2024/02/08 06:18:25;;;;;;;3.80;0.90;;;;;;;5.12;58.33;99276.25;108664;1254;64946;-58
2024/02/08 06:20:59;;;;;;;4.90;1.20;;;;;;;5.18;58.21;99285.90;108700;1254;64039;-58
2024/02/08 06:23:35;;;;;;;3.60;0.90;;;;;;;5.22;58.06;99286.33;108656;1254;62464;-58
2024/02/08 06:28:46;;;;;;;3.60;1.10;;;;;;;5.29;58.00;99291.00;104191;1260;60328;-58
2024/02/08 06:31:17;;;;;;;3.10;1.10;;;;;;;5.24;57.97;99292.22;108627;1259;76087;-58
2024/02/08 06:36:34;;;;;;;5.70;2.10;;;;;;;5.15;58.29;99296.88;108638;1254;64307;-58
2024/02/08 06:41:55;;;;;;;2.60;0.90;;;;;;;5.14;58.51;99310.55;108678;1254;58436;-58
2024/02/08 06:47:29;;;;;;;15.60;5.10;;;;;;;5.07;58.35;99318.86;108697;1259;62343;-58
2024/02/08 07:37:25;;;;;;;;;;;;;;;5.77;56.22;99371.36;108581;1260;59072;-68
2024/02/08 07:40:18;;;;;;;3.80;0.80;;;;;;;5.89;55.87;99365.41;108681;1254;67277;-60
2024/02/08 07:42:51;;;;;;;3.60;0.80;;;;;;;5.96;55.67;99365.80;106196;1254;61364;-58
2024/02/08 07:45:26;;;;;;;2.50;0.50;;;;;;;6.00;55.20;99364.80;104180;1263;64358;-69
2024/02/08 07:47:58;;;;;;;4.20;0.90;;;;;;;6.00;54.89;99365.12;106356;1259;60435;-68
2024/02/08 07:50:35;;;;;;;3.90;1.30;;;;;;;5.98;54.83;99377.84;106313;1254;60558;-68
2024/02/08 07:53:08;;;;;;;3.30;0.90;;;;;;;5.97;54.88;99386.63;105592;1254;63680;-63
2024/02/08 07:58:08;;;;;;;2.40;0.70;;;;;;;5.80;54.35;99396.63;108697;1257;64202;-64
2024/02/08 08:03:15;;;;;;;3.40;0.90;;;;;;;5.59;54.30;99406.65;106237;1254;60565;-63
2024/02/08 08:05:44;;;;;;;;;;;;;;;5.57;54.17;99404.05;106291;1258;67210;-65
2024/02/08 08:08:27;;;;;;;1.70;0.40;;;;;;;5.56;53.80;99405.70;106467;1254;61295;-65
2024/02/08 08:10:56;;;;;;;1.70;0.50;;;;;;;5.47;53.77;99406.02;106270;1254;64670;-63
2024/02/08 08:19:10;;;;;;;3.30;0.90;;;;;;;5.16;54.29;99430.34;106264;1257;64930;-66
2024/02/08 08:24:26;;;;;;;3.70;1.20;;;;;;;4.99;54.56;99435.77;106150;1257;63714;-64
2024/02/08 08:27:06;;;;;;;2.20;0.70;;;;;;;4.92;54.74;99439.54;106254;1254;60454;-62
2024/02/08 08:29:42;;;;;;;3.10;0.60;;;;;;;4.90;54.91;99440.18;106077;1258;60316;-63
2024/02/08 08:33:58;;;;;;;3.90;1.00;;;;;;;4.96;54.98;99439.27;106196;1257;65557;-64
2024/02/08 08:41:00;;;;;;;3.80;1.50;;;;;;;5.10;55.05;99444.05;106016;1258;60565;-65
2024/02/08 08:43:31;;;;;;;2.90;1.00;;;;;;;5.13;54.97;99451.08;108423;1256;59254;-66
2024/02/08 08:45:59;;;;;;;3.50;1.10;;;;;;;5.16;54.96;99453.48;108577;1256;63612;-68
2024/02/08 08:48:31;;;;;;;6.60;1.30;;;;;;;5.19;55.15;99457.10;108490;1257;63998;-67
2024/02/08 08:51:10;;;;;;;5.70;2.50;;;;;;;5.26;55.20;99463.89;108484;1257;73423;-65
2024/02/08 08:53:56;;;;;;;7.80;2.70;;;;;;;5.33;55.07;99469.48;108431;1257;59208;-65
2024/02/08 08:56:28;;;;;;;5.60;1.80;;;;;;;5.41;54.83;99472.17;108483;1257;59202;-67
2024/02/08 08:58:58;;;;;;;6.10;2.60;;;;;;;5.50;54.67;99469.31;108486;1256;67313;-67
2024/02/08 09:01:27;;;;;;;5.40;1.90;;;;;;;5.54;54.52;99472.96;106442;1257;63511;-63
2024/02/08 09:04:22;;;;;;;5.70;2.00;;;;;;;5.54;54.27;99476.48;106253;1257;66267;-64
2024/02/08 09:06:50;;;;;;;7.30;2.20;;;;;;;5.51;54.31;99479.30;106221;1258;60895;-64
2024/02/08 09:09:28;;;;;;;6.00;2.00;;;;;;;5.47;54.49;99485.18;106258;1257;62285;-65
2024/02/08 09:11:59;;;;;;;5.10;1.90;;;;;;;5.46;54.68;99486.44;106330;1256;67224;-65
2024/02/08 09:14:33;;;;;;;5.20;2.00;;;;;;;5.48;54.91;99489.25;106327;1257;73955;-67
2024/02/08 09:17:02;;;;;;;7.20;3.10;;;;;;;5.50;54.89;99481.30;106374;1257;73671;-64
2024/02/08 09:19:59;;;;;;;8.80;2.20;;;;;;;5.60;54.75;99475.87;106191;1255;62330;-68
2024/02/08 09:22:31;;;;;;;7.90;2.40;;;;;;;5.68;54.59;99473.88;106229;1257;60608;-67
2024/02/08 09:25:10;;;;;;;6.30;2.30;;;;;;;5.74;54.48;99475.50;106227;1257;65485;-69
2024/02/08 09:28:05;;;;;;;8.20;1.60;;;;;;;5.79;54.17;99480.86;106392;1254;72792;-67
2024/02/08 09:30:40;;;;;;;5.30;1.70;;;;;;;5.81;53.85;99476.73;106221;1254;74891;-68
2024/02/08 09:33:13;;;;;;;5.60;2.00;;;;;;;5.81;53.82;99474.46;106359;1254;60946;-66
2024/02/08 09:35:44;;;;;;;4.40;1.90;;;;;;;5.80;53.49;99470.89;106457;1254;61220;-66
2024/02/08 09:38:18;;;;;;;5.00;2.30;;;;;;;5.80;53.44;99467.44;106295;1254;65602;-71
2024/02/08 09:40:50;;;;;;;5.10;1.40;;;;;;;5.82;52.99;99472.16;107730;1257;73516;-68
2024/02/08 09:43:19;;;;;;;5.00;1.60;;;;;;;5.83;52.49;99474.37;106369;1259;64365;-67
2024/02/08 09:46:01;;;;;;;6.20;1.80;;;;;;;5.81;51.39;99475.71;106354;1254;60481;-66
2024/02/08 09:48:36;;;;;;;4.90;1.80;;;;;;;5.68;49.67;99481.66;104759;1261;64175;-64
2024/02/08 09:51:13;;;;;;;4.50;1.30;;;;;;;5.62;49.61;99486.48;106264;1260;65094;-66
2024/02/08 09:53:51;;;;;;;4.10;1.30;;;;;;;5.57;49.49;99491.05;106400;1256;62317;-67
2024/02/08 09:56:37;;;;;;;5.10;1.50;;;;;;;5.54;49.66;99493.85;105400;1254;71789;-69
2024/02/08 09:59:18;;;;;;;3.50;1.20;;;;;;;5.50;49.28;99497.83;106718;1254;60322;-66
2024/02/08 10:01:49;;;;;;;5.30;2.10;;;;;;;5.47;49.73;99498.71;106231;1253;60453;-67
2024/02/08 10:04:19;;;;;;;5.50;1.90;;;;;;;5.47;49.88;99498.40;106338;1254;74625;-66
2024/02/08 10:09:46;;;;;;;8.00;1.90;;;;;;;5.43;49.86;99507.02;106223;1257;72687;-66
2024/02/08 10:12:29;;;;;;;4.10;1.70;;;;;;;5.43;49.91;99511.54;108595;1260;63004;-66
2024/02/08 10:14:59;;;;;;;5.40;2.00;;;;;;;5.45;50.12;99515.21;108606;1254;58290;-69
2024/02/08 10:17:28;;;;;;;6.20;2.10;;;;;;;5.52;49.97;99516.42;106319;1258;64043;-68
2024/02/08 10:22:54;;;;;;;7.40;3.00;;;;;;;5.66;49.40;99508.66;106219;1254;64156;-69
2024/02/08 10:28:21;;;;;;;5.20;2.50;;;;;;;5.74;49.31;99526.31;106429;1257;60565;-68
2024/02/08 10:30:59;;;;;;;3.80;1.60;;;;;;;5.80;49.39;99526.41;106298;1254;67104;-60
2024/02/08 10:33:37;;;;;;;4.90;1.70;;;;;;;5.88;49.51;99524.96;108667;1256;72361;-67
2024/02/08 10:36:18;;;;;;;5.10;1.90;;;;;;;5.94;49.53;99526.40;108733;1254;66790;-67
2024/02/08 10:38:56;;;;;;;3.20;1.30;;;;;;;5.96;48.49;99520.58;108673;1257;60574;-66
2024/02/08 10:44:18;;;;;;;4.70;1.50;;;;;;;5.91;48.44;99519.33;108659;1253;69285;-64
2024/02/08 10:46:46;;;;;;;3.50;1.00;;;;;;;5.91;48.44;99518.80;108574;1254;60358;-65
2024/02/08 10:49:14;;;;;;;4.40;1.10;;;;;;;5.95;48.33;99520.45;108571;1254;66963;-64
2024/02/08 10:51:43;;;;;;;2.60;0.90;;;;;;;5.99;48.28;99528.19;108675;1259;60121;-66
2024/02/08 10:54:14;;;;;;;4.60;1.30;;;;;;;6.06;48.33;99530.98;108583;1254;64385;-65
2024/02/08 10:57:06;;;;;;;3.90;1.10;;;;;;;6.12;48.44;99529.48;108757;1253;69823;-67
2024/02/08 10:59:50;;;;;;;6.00;1.50;;;;;;;6.24;48.37;99534.46;106280;1259;71382;-68
2024/02/08 11:02:40;;;;;;;4.20;1.40;;;;;;;6.36;48.25;99530.42;106140;1258;72646;-63
2024/02/08 11:08:13;;;;;;;2.30;0.70;;;;;;;6.61;47.27;99533.74;104253;1254;64483;-67
2024/02/08 11:10:42;;;;;;;5.10;1.00;;;;;;;6.61;46.44;99537.58;106399;1256;65892;-69
2024/02/08 11:13:11;;;;;;;3.70;1.50;;;;;;;6.54;46.07;99532.20;106163;1260;63254;-63
2024/02/08 11:15:47;;;;;;;2.60;0.90;;;;;;;6.42;45.99;99531.95;106103;1255;64471;-68
2024/02/08 11:18:36;;;;;;;;;;;;;;;6.29;46.32;99532.86;106235;1260;60458;-69
2024/02/08 11:21:04;;;;;;;4.00;1.30;;;;;;;6.31;46.71;99535.02;106379;1254;60753;-70
2024/02/08 11:23:41;;;;;;;4.10;1.40;;;;;;;6.37;46.59;99535.23;105737;1260;67964;-57
2024/02/08 11:26:18;;;;;;;4.20;1.00;;;;;;;6.41;45.47;99537.55;105371;1254;62233;-69
2024/02/08 11:28:50;;;;;;;5.60;0.90;;;;;;;6.41;45.04;99532.16;106199;1254;74807;-68
2024/02/08 11:31:18;;;;;;;3.50;0.80;;;;;;;6.44;44.95;99528.79;106292;1253;61942;-67
2024/02/08 11:33:46;;;;;;;2.50;0.60;;;;;;;6.51;44.64;99530.70;106376;1259;60329;-67
2024/02/08 11:36:21;;;;;;;4.10;1.40;;;;;;;6.61;44.53;99534.45;106345;1252;67447;-68
2024/02/08 11:39:04;;;;;;;1.40;0.50;;;;;;;6.71;44.33;99538.74;108787;1253;64232;-68
2024/02/08 11:41:32;;;;;;;3.70;1.20;;;;;;;6.75;43.42;99530.95;108779;1257;74832;-66
2024/02/08 11:44:03;;;;;;;3.20;0.90;;;;;;;6.75;43.16;99531.80;108636;1254;58752;-66
2024/02/08 11:46:37;;;;;;;2.50;0.80;;;;;;;6.69;43.16;99533.87;106312;1254;60324;-68
2024/02/08 11:49:10;;;;;;;3.80;1.70;;;;;;;6.68;43.45;99535.51;106262;1254;65052;-66
2024/02/08 11:51:40;;;;;;;1.10;0.40;;;;;;;6.66;43.69;99532.36;108691;1254;60284;-65
2024/02/08 11:54:11;;;;;;;2.60;1.10;;;;;;;6.63;43.76;99529.05;108728;1254;68126;-65
2024/02/08 11:56:38;;;;;;;6.00;1.90;;;;;;;6.62;43.83;99527.58;106772;1255;60536;-62
2024/02/08 11:59:07;;;;;;;3.00;0.80;;;;;;;6.60;43.61;99529.00;106151;1257;60355;-67
2024/02/08 12:01:35;;;;;;;2.30;0.60;;;;;;;6.64;43.79;99538.10;106284;1256;74663;-68
2024/02/08 12:04:03;;;;;;;4.80;1.70;;;;;;;6.65;44.13;99542.14;106279;1253;70748;-66
2024/02/08 12:06:34;;;;;;;2.60;0.90;;;;;;;6.63;44.18;99542.69;106290;1254;74095;-68
2024/02/08 12:09:02;;;;;;;3.00;1.00;;;;;;;6.65;44.36;99536.94;106280;1254;60552;-60
2024/02/08 12:11:31;;;;;;;2.90;0.80;;;;;;;6.73;44.36;99537.41;104497;1254;63051;-67
2024/02/08 12:14:12;;;;;;;1.30;0.50;;;;;;;6.75;44.41;99536.70;106369;1254;71409;-65
2024/02/08 12:16:57;;;;;;;2.40;0.70;;;;;;;6.73;44.45;99536.33;106448;1254;63810;-65
2024/02/08 12:19:29;;;;;;;3.00;0.80;;;;;;;6.68;44.71;99540.55;106355;1256;66610;-66
2024/02/08 12:21:58;;;;;;;4.50;1.10;;;;;;;6.62;44.67;99546.44;106341;1254;60399;-67
2024/02/08 12:24:31;;;;;;;5.20;2.30;;;;;;;6.52;44.85;99551.89;106323;1254;60351;-66
2024/02/08 12:27:25;;;;;;;4.20;1.10;;;;;;;6.46;45.13;99548.48;106307;1254;65165;-66
2024/02/08 12:29:56;;;;;;;4.30;1.00;;;;;;;6.54;45.16;99549.30;104994;1254;433466;-64
2024/02/08 12:34:34;;;;;;;3.40;1.10;;;;;;;6.38;45.89;99550.95;103132;1295;602653;-65
2024/02/08 12:37:06;;;;;;;3.30;1.20;;;;;;;6.78;45.17;99555.15;105286;1268;59775;-67
2024/02/08 12:39:38;;;;;;;4.00;0.90;;;;;;;6.81;45.03;99556.45;105297;1273;60067;-65
2024/02/08 12:42:06;;;;;;;8.80;4.40;;;;;;;6.84;45.29;99555.55;105401;1272;74839;-68
2024/02/08 12:44:36;;;;;;;3.60;1.30;;;;;;;6.89;45.16;99553.05;104449;1268;74829;-53
2024/02/08 12:47:06;;;;;;;3.20;0.60;;;;;;;6.93;45.09;99557.78;103317;1264;265607;-55
2024/02/08 12:49:34;;;;;;;5.00;1.00;;;;;;;7.03;45.22;99555.41;103543;1271;59353;-54
2024/02/08 12:52:03;;;;;;;3.80;1.40;;;;;;;7.20;44.93;99557.91;105827;1268;60121;-54
2024/02/08 12:54:33;;;;;;;5.30;1.20;;;;;;;7.35;44.39;99562.17;108279;1261;75909;-54
2024/02/08 12:57:13;;;;;;;7.60;2.10;;;;;;;7.37;44.08;99556.44;107118;1263;69533;-54
2024/02/08 12:59:42;;;;;;;5.30;2.60;;;;;;;7.35;43.95;99556.24;104013;1266;74876;-54
2024/02/08 13:02:17;;;;;;;4.70;1.40;;;;;;;7.52;43.09;99551.05;105019;1261;60181;-54
2024/02/08 13:04:48;;;;;;;3.20;0.80;;;;;;;7.75;42.34;99551.45;108167;1262;60098;-55
2024/02/08 13:07:16;;;;;;;4.30;1.70;;;;;;;8.24;40.77;99543.55;108243;1265;75292;-52
2024/02/08 13:09:45;;;;;;;4.90;2.40;;;;;;;8.52;39.50;99546.52;105771;1260;74721;-55
2024/02/08 13:12:17;;;;;;;3.90;1.00;;;;;;;8.81;39.00;99548.97;108259;1265;75215;-54
2024/02/08 13:14:48;;;;;;;5.80;2.70;;;;;;;9.08;38.47;99547.14;108273;1264;60338;-54
2024/02/08 13:17:20;;;;;;;2.90;0.90;;;;;;;9.14;38.39;99548.54;108222;1264;59196;-54
2024/02/08 13:19:49;;;;;;;3.50;1.20;;;;;;;9.03;38.04;99553.49;108203;1265;75383;-56
2024/02/08 13:22:21;;;;;;;6.50;2.50;;;;;;;8.73;38.33;99554.35;106079;1265;65341;-53
2024/02/08 13:24:51;;;;;;;3.90;1.50;;;;;;;8.40;38.66;99555.70;104015;1263;64088;-55
2024/02/08 13:27:29;;;;;;;3.30;1.10;;;;;;;8.14;39.18;99557.91;107467;1263;59629;-52
2024/02/08 13:29:59;;;;;;;5.70;2.20;;;;;;;7.96;39.70;99562.64;103833;1264;59725;-53
2024/02/08 13:32:30;;;;;;;4.50;1.50;;;;;;;8.10;39.85;99558.20;108201;1261;73195;-54
2024/02/08 13:34:58;;;;;;;5.40;1.40;;;;;;;8.40;39.76;99562.89;104492;1264;72491;-54
2024/02/08 13:37:26;;;;;;;7.00;2.30;;;;;;;8.71;39.14;99560.98;103739;1261;75776;-56
2024/02/08 13:40:03;;;;;;;5.60;1.40;;;;;;;8.88;38.82;99559.69;103859;1266;62554;-55
2024/02/08 13:42:31;;;;;;;5.40;2.10;;;;;;;8.80;38.12;99562.31;107098;1261;62185;-55
2024/02/08 13:45:24;;;;;;;3.70;1.10;;;;;;;8.47;37.96;99561.91;108302;1260;64596;-56
2024/02/08 13:47:55;;;;;;;3.70;1.20;;;;;;;8.13;38.24;99569.27;108234;1261;60649;-55
2024/02/08 13:50:28;;;;;;;4.10;1.20;;;;;;;7.93;38.85;99578.30;108199;1260;71802;-54
2024/02/08 13:53:01;;;;;;;2.70;0.90;;;;;;;7.76;39.43;99577.35;105098;1266;60470;-54
2024/02/08 13:55:31;;;;;;;4.60;1.40;;;;;;;7.70;39.79;99572.66;103730;1267;60732;-52
2024/02/08 13:58:18;;;;;;;4.50;1.10;;;;;;;7.61;39.33;99567.56;108262;1261;73379;-52
2024/02/08 14:00:47;;;;;;;2.90;1.00;;;;;;;7.55;39.33;99569.64;104271;1265;68937;-53
2024/02/08 14:03:17;;;;;;;6.90;2.20;;;;;;;7.36;39.38;99572.04;106691;1260;62543;-53
2024/02/08 14:05:51;;;;;;;6.80;2.10;;;;;;;7.21;39.80;99571.28;105758;1261;59956;-70
2024/02/08 14:08:23;;;;;;;3.80;0.80;;;;;;;7.13;39.87;99572.64;108269;1260;60158;-53
2024/02/08 14:10:53;;;;;;;6.70;1.70;;;;;;;7.03;39.80;99571.63;104554;1266;68051;-56
2024/02/08 14:13:28;;;;;;;3.50;1.10;;;;;;;6.95;40.42;99574.58;108500;1262;72238;-64
2024/02/08 14:16:13;;;;;;;5.50;2.30;;;;;;;6.91;40.37;99578.02;108420;1257;66326;-64
2024/02/08 14:18:52;;;;;;;5.80;1.60;;;;;;;6.84;40.47;99577.63;108497;1258;57845;-64
2024/02/08 14:21:24;;;;;;;6.20;1.10;;;;;;;6.77;40.78;99581.17;108461;1258;57663;-63
2024/02/08 14:23:59;;;;;;;4.40;1.30;;;;;;;6.70;40.97;99591.50;108455;1257;75751;-67
2024/02/08 14:26:43;;;;;;;2.90;0.80;;;;;;;6.62;40.92;99597.31;106457;1261;64525;-62